Time;durP1;ratioP1;P1;durP2;ratioP2;P2;SDS_P1;SDS_P2;PMS_P1;PMS_P2;Temp;Humidity;BMP_temperature;BMP_pressure;BME280_temperature;BME280_humidity;BME280_pressure;Samples;Min_cycle;Max_cycle;Signal;HPM_P1;HPM_P2
2023/07/30 00:00:06;;;;;;;19.83;8.77;;;;;;;;;;4973700;28;20043;-82
2023/07/30 00:02:38;;;;;;;16.23;8.63;;;;;;;;;;4975979;28;20059;-83
2023/07/30 00:05:14;;;;;;;28.05;11.75;;;;;;;;;;4973943;28;20046;-82
2023/07/30 00:07:46;;;;;;;24.83;11.50;;;;;;;;;;4956275;28;20058;-82
2023/07/30 00:10:19;;;;;;;24.30;10.02;;;;;;;;;;4973933;28;20053;-82
2023/07/30 00:12:50;;;;;;;22.23;9.55;;;;;;;;;;4956336;28;20058;-86
2023/07/30 00:15:23;;;;;;;20.73;9.80;;;;;;;;;;4974026;28;20053;-82
2023/07/30 00:17:56;;;;;;;20.17;8.73;;;;;;;;;;4956735;28;20504;-82
2023/07/30 00:20:28;;;;;;;18.88;9.13;;;;;;;;;;4956213;28;20105;-86
2023/07/30 00:22:58;;;;;;;21.30;10.23;;;;;;;;;;4972191;28;20046;-83
2023/07/30 00:25:30;;;;;;;25.58;11.93;;;;;;;;;;4973591;28;20058;-84
2023/07/30 00:28:02;;;;;;;31.95;13.73;;;;;;;;;;4973798;28;20398;-86
2023/07/30 00:30:37;;;;;;;27.23;15.52;;;;;;;;;;4957443;28;20423;-82
2023/07/30 00:33:07;;;;;;;24.67;11.65;;;;;;;;;;4955330;28;20049;-81
2023/07/30 00:35:38;;;;;;;21.52;10.65;;;;;;;;;;4973221;28;20058;-82
2023/07/30 00:38:11;;;;;;;22.20;10.95;;;;;;;;;;4973241;28;20399;-82
2023/07/30 00:40:41;;;;;;;17.60;9.30;;;;;;;;;;4955667;28;20047;-84
2023/07/30 00:43:14;;;;;;;17.20;7.90;;;;;;;;;;4955352;28;20050;-82
2023/07/30 00:45:45;;;;;;;17.90;8.45;;;;;;;;;;4971412;28;20054;-84
2023/07/30 00:48:19;;;;;;;21.83;10.40;;;;;;;;;;4973431;28;20047;-83
2023/07/30 00:50:50;;;;;;;;;;;;;;;;;;4973954;28;20050;-84
2023/07/30 00:53:24;;;;;;;18.67;9.27;;;;;;;;;;4954949;28;19922;-81
2023/07/30 00:55:55;;;;;;;18.15;9.02;;;;;;;;;;4955267;28;20050;-82
2023/07/30 00:58:28;;;;;;;19.02;9.50;;;;;;;;;;4973155;28;20520;-84
2023/07/30 01:00:59;;;;;;;20.13;9.65;;;;;;;;;;4987404;28;20050;-82
2023/07/30 01:03:32;;;;;;;24.95;9.45;;;;;;;;;;4955153;28;20074;-82
2023/07/30 01:06:10;;;;;;;17.92;9.45;;;;;;;;;;4956414;28;20509;-82
2023/07/30 01:08:41;;;;;;;18.95;8.95;;;;;;;;;;4971819;28;20410;-84
2023/07/30 01:11:12;;;;;;;17.08;8.38;;;;;;;;;;4972857;28;20469;-82
2023/07/30 01:13:44;;;;;;;17.25;8.82;;;;;;;;;;4972736;28;20065;-82
2023/07/30 01:16:17;;;;;;;16.42;8.15;;;;;;;;;;4972964;28;20047;-82
2023/07/30 01:18:49;;;;;;;19.50;8.85;;;;;;;;;;4972718;28;20051;-85
2023/07/30 01:21:20;;;;;;;18.42;9.15;;;;;;;;;;4970947;28;20055;-81
2023/07/30 01:23:50;;;;;;;23.77;10.32;;;;;;;;;;4954740;28;20117;-81
2023/07/30 01:26:27;;;;;;;25.70;11.60;;;;;;;;;;4954959;28;20498;-81
2023/07/30 01:29:03;;;;;;;25.58;11.30;;;;;;;;;;4972181;28;20046;-81
2023/07/30 01:31:39;;;;;;;24.40;10.20;;;;;;;;;;4954937;28;20054;-86
2023/07/30 01:34:11;;;;;;;21.63;9.45;;;;;;;;;;4954068;28;20058;-82
2023/07/30 01:36:45;;;;;;;21.10;8.93;;;;;;;;;;4972182;28;20066;-82
2023/07/30 01:39:18;;;;;;;20.48;9.68;;;;;;;;;;4954566;28;20066;-85
2023/07/30 01:41:54;;;;;;;21.88;9.40;;;;;;;;;;4954852;28;20054;-82
2023/07/30 01:44:25;;;;;;;18.63;8.20;;;;;;;;;;4972353;28;20043;-82
2023/07/30 01:46:55;;;;;;;23.92;8.73;;;;;;;;;;4972432;28;20047;-81
2023/07/30 01:49:26;;;;;;;16.58;8.13;;;;;;;;;;4954854;28;20047;-83
2023/07/30 01:52:01;;;;;;;15.68;7.43;;;;;;;;;;4972257;28;20046;-85
2023/07/30 01:54:31;;;;;;;17.60;8.70;;;;;;;;;;4972200;28;20043;-81
2023/07/30 01:57:01;;;;;;;18.63;8.38;;;;;;;;;;4972359;28;20054;-82
2023/07/30 01:59:33;;;;;;;18.35;8.68;;;;;;;;;;4986291;28;20055;-81
2023/07/30 02:02:04;;;;;;;17.15;7.68;;;;;;;;;;4954510;28;20403;-81
2023/07/30 02:04:36;;;;;;;18.83;7.57;;;;;;;;;;4972101;28;20050;-82
2023/07/30 02:07:08;;;;;;;16.83;7.18;;;;;;;;;;4972081;28;20107;-82
2023/07/30 02:09:38;;;;;;;17.20;8.43;;;;;;;;;;4972434;28;20472;-81
2023/07/30 02:12:09;;;;;;;17.05;8.70;;;;;;;;;;4939152;28;20051;-85
2023/07/30 02:14:41;;;;;;;21.52;9.25;;;;;;;;;;4954404;28;20058;-82
2023/07/30 02:17:13;;;;;;;19.40;8.80;;;;;;;;;;4972043;28;20043;-83
2023/07/30 02:19:43;;;;;;;17.88;7.93;;;;;;;;;;4971996;28;20046;-84
2023/07/30 02:22:15;;;;;;;14.52;7.55;;;;;;;;;;4954573;28;20058;-81
2023/07/30 02:24:49;;;;;;;16.95;7.80;;;;;;;;;;4972313;28;20043;-82
2023/07/30 02:27:19;;;;;;;16.15;7.15;;;;;;;;;;4955293;28;20051;-81
2023/07/30 02:29:49;;;;;;;20.23;7.72;;;;;;;;;;4971907;28;20047;-81
2023/07/30 02:32:20;;;;;;;21.17;9.52;;;;;;;;;;4972068;28;20413;-81
2023/07/30 02:34:52;;;;;;;21.92;8.18;;;;;;;;;;4970016;28;20417;-82
2023/07/30 02:37:22;;;;;;;19.02;8.57;;;;;;;;;;4972142;28;20047;-81
2023/07/30 02:39:52;;;;;;;19.15;8.40;;;;;;;;;;4972378;28;20561;-81
2023/07/30 02:42:23;;;;;;;19.35;9.13;;;;;;;;;;4956403;28;20587;-82
2023/07/30 02:44:54;;;;;;;18.30;8.85;;;;;;;;;;4953930;28;20047;-81
2023/07/30 02:47:27;;;;;;;20.95;9.63;;;;;;;;;;4954050;28;20394;-81
2023/07/30 02:50:02;;;;;;;18.83;9.00;;;;;;;;;;4955834;28;20050;-81
2023/07/30 02:52:35;;;;;;;17.98;8.32;;;;;;;;;;4975462;28;20468;-82
2023/07/30 02:55:09;;;;;;;16.50;7.95;;;;;;;;;;4973456;28;20058;-83
2023/07/30 02:57:40;;;;;;;14.85;7.53;;;;;;;;;;4975443;28;20047;-82
2023/07/30 03:00:12;;;;;;;17.13;7.15;;;;;;;;;;4975310;28;20062;-81
2023/07/30 03:02:42;;;;;;;17.17;8.80;;;;;;;;;;4957823;28;20504;-82
2023/07/30 03:05:14;;;;;;;24.73;8.93;;;;;;;;;;4973918;28;20057;-82
2023/07/30 03:07:46;;;;;;;20.38;9.30;;;;;;;;;;4973827;28;20054;-84
2023/07/30 03:10:17;;;;;;;25.95;10.85;;;;;;;;;;4972870;28;20058;-81
2023/07/30 03:12:47;;;;;;;18.50;9.23;;;;;;;;;;4957325;28;20051;-83
2023/07/30 03:15:17;;;;;;;23.63;10.00;;;;;;;;;;4970269;28;20055;-86
2023/07/30 03:17:52;;;;;;;22.65;10.23;;;;;;;;;;4954479;29;20051;-81
2023/07/30 03:20:25;;;;;;;27.80;11.63;;;;;;;;;;4939008;29;20522;-81
2023/07/30 03:22:59;;;;;;;26.17;11.45;;;;;;;;;;4937771;29;20521;-84
2023/07/30 03:25:29;;;;;;;30.88;12.65;;;;;;;;;;4938692;29;20051;-81
2023/07/30 03:28:05;;;;;;;32.65;12.82;;;;;;;;;;4955492;29;20047;-82
2023/07/30 03:30:35;;;;;;;27.80;12.52;;;;;;;;;;4937987;29;20590;-85
2023/07/30 03:33:11;;;;;;;27.02;11.32;;;;;;;;;;4955192;29;20525;-83
2023/07/30 03:35:41;;;;;;;23.13;10.75;;;;;;;;;;4954229;29;20048;-81
2023/07/30 03:38:11;;;;;;;22.60;9.90;;;;;;;;;;4958428;28;20050;-82
2023/07/30 03:40:42;;;;;;;18.92;8.60;;;;;;;;;;4958631;28;20059;-84
2023/07/30 03:43:12;;;;;;;19.13;9.00;;;;;;;;;;4976381;28;20038;-85
2023/07/30 03:45:42;;;;;;;18.58;9.18;;;;;;;;;;4976469;28;20051;-81
2023/07/30 03:48:12;;;;;;;18.77;8.65;;;;;;;;;;4976608;28;20050;-81
2023/07/30 03:50:44;;;;;;;20.30;8.48;;;;;;;;;;4976392;28;20477;-85
2023/07/30 03:53:16;;;;;;;18.67;8.57;;;;;;;;;;4958188;28;20055;-83
2023/07/30 03:55:47;;;;;;;15.95;7.65;;;;;;;;;;4974687;28;20051;-81
2023/07/30 03:58:17;;;;;;;16.80;7.55;;;;;;;;;;4958065;28;20050;-81
2023/07/30 04:00:48;;;;;;;17.73;7.40;;;;;;;;;;4975654;28;20047;-83
2023/07/30 04:03:22;;;;;;;16.48;9.23;;;;;;;;;;4958421;28;20393;-84
2023/07/30 04:05:52;;;;;;;15.93;8.02;;;;;;;;;;4957900;28;20039;-82
2023/07/30 04:08:22;;;;;;;14.70;7.70;;;;;;;;;;4976598;28;20054;-85
2023/07/30 04:10:52;;;;;;;14.77;7.50;;;;;;;;;;4963597;28;20039;-81
2023/07/30 04:13:25;;;;;;;18.58;7.85;;;;;;;;;;4956631;29;20051;-84
2023/07/30 04:15:55;;;;;;;21.58;8.57;;;;;;;;;;4956516;29;20509;-83
2023/07/30 04:18:26;;;;;;;20.30;8.77;;;;;;;;;;4956279;29;20051;-83
2023/07/30 04:20:59;;;;;;;17.52;9.10;;;;;;;;;;4956974;29;20043;-84
2023/07/30 04:23:31;;;;;;;17.98;8.00;;;;;;;;;;4956372;29;20054;-81
2023/07/30 04:26:05;;;;;;;19.42;7.47;;;;;;;;;;4954961;29;20406;-84
2023/07/30 04:28:35;;;;;;;15.75;7.63;;;;;;;;;;4954271;29;20058;-80
2023/07/30 04:31:07;;;;;;;16.15;6.35;;;;;;;;;;4954763;29;20055;-82
2023/07/30 04:33:39;;;;;;;;;;;;;;;;;;4970900;28;20051;-81
2023/07/30 04:36:10;;;;;;;15.05;6.45;;;;;;;;;;4954452;29;19922;-83
2023/07/30 04:38:43;;;;;;;15.45;7.50;;;;;;;;;;4969969;28;20494;-81
2023/07/30 04:41:15;;;;;;;12.95;6.95;;;;;;;;;;4954459;29;20043;-81
2023/07/30 04:43:51;;;;;;;16.77;6.90;;;;;;;;;;4954501;29;20062;-81
2023/07/30 04:46:22;;;;;;;16.17;6.65;;;;;;;;;;4954901;28;20051;-84
2023/07/30 04:48:52;;;;;;;13.55;6.40;;;;;;;;;;4970022;28;20055;-82
2023/07/30 04:51:22;;;;;;;13.57;7.18;;;;;;;;;;4954719;28;20058;-81
2023/07/30 04:53:57;;;;;;;14.30;6.95;;;;;;;;;;4969632;28;20055;-83
2023/07/30 04:56:27;;;;;;;13.38;6.82;;;;;;;;;;4954046;29;20405;-80
2023/07/30 04:58:57;;;;;;;17.23;7.82;;;;;;;;;;4954179;29;20328;-80
2023/07/30 05:01:29;;;;;;;13.88;7.10;;;;;;;;;;4954422;29;20054;-81
2023/07/30 05:04:02;;;;;;;15.18;7.32;;;;;;;;;;4955648;29;20505;-83
2023/07/30 05:06:36;;;;;;;19.90;8.98;;;;;;;;;;4954470;29;20431;-85
2023/07/30 05:09:06;;;;;;;15.45;7.32;;;;;;;;;;4955458;29;20043;-81
2023/07/30 05:11:36;;;;;;;14.57;7.53;;;;;;;;;;4969955;28;20050;-80
2023/07/30 05:14:09;;;;;;;15.93;7.28;;;;;;;;;;4955530;29;20047;-83
2023/07/30 05:16:40;;;;;;;15.20;7.43;;;;;;;;;;4953946;29;20058;-84
2023/07/30 05:19:12;;;;;;;17.13;6.93;;;;;;;;;;4955493;29;20043;-85
2023/07/30 05:21:47;;;;;;;16.00;7.07;;;;;;;;;;4955924;29;20143;-80
2023/07/30 05:24:17;;;;;;;14.27;7.10;;;;;;;;;;4953985;29;20054;-81
2023/07/30 05:26:51;;;;;;;13.68;6.38;;;;;;;;;;4955566;29;20050;-80
2023/07/30 05:29:23;;;;;;;16.23;7.13;;;;;;;;;;4955150;29;20039;-81
2023/07/30 05:31:54;;;;;;;16.52;8.00;;;;;;;;;;4955416;29;20047;-86
2023/07/30 05:34:24;;;;;;;25.65;11.63;;;;;;;;;;4955422;29;20047;-81
2023/07/30 05:36:59;;;;;;;22.88;10.95;;;;;;;;;;4954601;29;20059;-81
2023/07/30 05:39:34;;;;;;;21.35;10.45;;;;;;;;;;4955280;29;20382;-82
2023/07/30 05:42:05;;;;;;;19.90;9.02;;;;;;;;;;4955640;29;20458;-84
2023/07/30 05:44:35;;;;;;;18.17;8.48;;;;;;;;;;4955280;29;20047;-81
2023/07/30 05:47:10;;;;;;;15.52;7.47;;;;;;;;;;4955249;29;20348;-83
2023/07/30 05:49:41;;;;;;;13.82;6.85;;;;;;;;;;4954059;29;20040;-81
2023/07/30 05:52:13;;;;;;;13.48;6.88;;;;;;;;;;4954856;29;20039;-83
2023/07/30 05:54:45;;;;;;;13.40;6.82;;;;;;;;;;4955329;29;20481;-81
2023/07/30 05:57:15;;;;;;;15.00;7.47;;;;;;;;;;4954877;29;20051;-81
2023/07/30 05:59:46;;;;;;;17.13;8.60;;;;;;;;;;4955010;29;20058;-83
2023/07/30 06:02:17;;;;;;;16.45;8.20;;;;;;;;;;4954927;29;20482;-85
2023/07/30 06:04:49;;;;;;;18.15;8.38;;;;;;;;;;4952945;29;20047;-86
2023/07/30 06:07:20;;;;;;;15.23;7.68;;;;;;;;;;4955102;29;20055;-82
2023/07/30 06:09:50;;;;;;;16.55;8.00;;;;;;;;;;4955237;29;20043;-81
2023/07/30 06:12:22;;;;;;;20.98;8.48;;;;;;;;;;4954783;29;20367;-82
2023/07/30 06:14:53;;;;;;;15.88;7.53;;;;;;;;;;4938066;28;20078;-83
2023/07/30 06:17:27;;;;;;;17.58;7.75;;;;;;;;;;4954941;29;20066;-81
2023/07/30 06:20:00;;;;;;;16.58;8.43;;;;;;;;;;4954605;29;20047;-83
2023/07/30 06:22:34;;;;;;;17.83;9.40;;;;;;;;;;4954976;29;20054;-84
2023/07/30 06:25:10;;;;;;;16.80;8.43;;;;;;;;;;4958445;28;20058;-82
2023/07/30 06:27:46;;;;;;;19.80;7.63;;;;;;;;;;4957899;29;20057;-81
2023/07/30 06:30:20;;;;;;;17.75;7.95;;;;;;;;;;4958902;29;20055;-82
2023/07/30 06:32:50;;;;;;;16.13;6.97;;;;;;;;;;4958854;29;20054;-82
2023/07/30 06:35:22;;;;;;;16.92;7.82;;;;;;;;;;4956715;29;20058;-81
2023/07/30 06:37:53;;;;;;;18.45;7.78;;;;;;;;;;4958705;29;20051;-80
2023/07/30 06:40:23;;;;;;;17.50;8.52;;;;;;;;;;4957095;29;20047;-80
2023/07/30 06:43:01;;;;;;;17.48;7.68;;;;;;;;;;4958518;29;20050;-82
2023/07/30 06:45:33;;;;;;;14.98;7.88;;;;;;;;;;4958178;29;20050;-82
2023/07/30 06:48:04;;;;;;;15.68;8.10;;;;;;;;;;4958576;29;20398;-83
2023/07/30 06:50:34;;;;;;;16.45;8.25;;;;;;;;;;4957988;29;20043;-82
2023/07/30 06:53:06;;;;;;;17.25;7.95;;;;;;;;;;4958187;29;20161;-82
2023/07/30 06:55:42;;;;;;;17.02;7.70;;;;;;;;;;4957986;29;20066;-82
2023/07/30 06:58:14;;;;;;;15.40;7.82;;;;;;;;;;4956531;29;20059;-81
2023/07/30 07:00:44;;;;;;;17.13;7.32;;;;;;;;;;4957827;29;20039;-82
2023/07/30 07:03:14;;;;;;;14.82;7.07;;;;;;;;;;4958220;29;20474;-84
2023/07/30 07:05:56;;;;;;;14.60;7.15;;;;;;;;;;4958450;29;20050;-81
2023/07/30 07:08:28;;;;;;;13.77;7.00;;;;;;;;;;4957787;29;20426;-82
2023/07/30 07:11:03;;;;;;;14.13;7.32;;;;;;;;;;4957763;29;20058;-81
2023/07/30 07:13:35;;;;;;;12.80;6.40;;;;;;;;;;4958309;29;20047;-83
2023/07/30 07:16:05;;;;;;;16.38;7.53;;;;;;;;;;4958085;29;20074;-85
2023/07/30 07:18:35;;;;;;;14.95;7.45;;;;;;;;;;4957979;29;20043;-83
2023/07/30 07:21:08;;;;;;;17.73;7.63;;;;;;;;;;4957569;29;20047;-81
2023/07/30 07:23:38;;;;;;;16.73;7.68;;;;;;;;;;4956327;29;20051;-81
2023/07/30 07:26:11;;;;;;;15.93;7.43;;;;;;;;;;4957653;29;20050;-83
2023/07/30 07:28:42;;;;;;;19.65;7.88;;;;;;;;;;4957453;29;20044;-85
2023/07/30 07:31:14;;;;;;;16.17;7.50;;;;;;;;;;4957698;29;20054;-82
2023/07/30 07:33:47;;;;;;;13.35;7.10;;;;;;;;;;4957161;29;20043;-82
2023/07/30 07:36:18;;;;;;;14.75;6.72;;;;;;;;;;4956420;28;20486;-85
2023/07/30 07:38:49;;;;;;;15.38;7.00;;;;;;;;;;4957150;29;20105;-81
2023/07/30 07:41:25;;;;;;;14.00;6.38;;;;;;;;;;4956912;29;20051;-81
2023/07/30 07:43:57;;;;;;;14.85;7.20;;;;;;;;;;4957329;29;20044;-81
2023/07/30 07:46:30;;;;;;;12.57;6.18;;;;;;;;;;4957125;29;20058;-82
2023/07/30 07:49:00;;;;;;;13.52;7.20;;;;;;;;;;4957484;29;20047;-86
2023/07/30 07:51:33;;;;;;;15.68;7.05;;;;;;;;;;4971456;28;20078;-86
2023/07/30 07:54:06;;;;;;;15.88;7.47;;;;;;;;;;4956815;29;20047;-81
2023/07/30 07:56:36;;;;;;;13.30;6.97;;;;;;;;;;4956946;29;20390;-84
2023/07/30 07:59:06;;;;;;;17.70;7.90;;;;;;;;;;4957066;29;20047;-81
2023/07/30 08:01:37;;;;;;;14.65;7.38;;;;;;;;;;4971472;28;20055;-82
2023/07/30 08:04:08;;;;;;;14.13;6.90;;;;;;;;;;4957070;29;20051;-81
2023/07/30 08:06:41;;;;;;;14.55;6.45;;;;;;;;;;4956530;29;20114;-83
2023/07/30 08:09:11;;;;;;;16.27;6.65;;;;;;;;;;4956536;29;20043;-82
2023/07/30 08:11:41;;;;;;;13.75;6.93;;;;;;;;;;4956577;29;20046;-81
2023/07/30 08:14:13;;;;;;;14.73;6.75;;;;;;;;;;4971017;28;20047;-83
2023/07/30 08:16:50;;;;;;;14.25;6.72;;;;;;;;;;4956723;29;20047;-82
2023/07/30 08:19:21;;;;;;;13.70;6.43;;;;;;;;;;4956476;29;20051;-82
2023/07/30 08:21:53;;;;;;;16.13;6.70;;;;;;;;;;4954189;29;20470;-81
2023/07/30 08:24:25;;;;;;;;;;;;;;;;;;4957091;29;20119;-83
2023/07/30 08:26:59;;;;;;;13.05;6.00;;;;;;;;;;4956612;29;19946;-82
2023/07/30 08:29:29;;;;;;;;;;;;;;;;;;4956916;29;20055;-81
2023/07/30 08:31:59;;;;;;;14.45;5.65;;;;;;;;;;4956690;29;19934;-85
2023/07/30 08:34:30;;;;;;;11.68;5.88;;;;;;;;;;4956364;29;20074;-81
2023/07/30 08:37:00;;;;;;;12.65;6.65;;;;;;;;;;4953786;29;20414;-85
2023/07/30 08:39:35;;;;;;;11.73;6.60;;;;;;;;;;4970272;28;20062;-81
2023/07/30 08:42:05;;;;;;;12.27;6.43;;;;;;;;;;4955107;29;20054;-81
2023/07/30 08:44:35;;;;;;;12.80;6.63;;;;;;;;;;4956395;29;20043;-84
2023/07/30 08:47:08;;;;;;;11.70;5.95;;;;;;;;;;4954048;28;20081;-82
2023/07/30 08:49:38;;;;;;;15.45;6.43;;;;;;;;;;4956353;29;20047;-85
2023/07/30 08:52:11;;;;;;;14.30;6.15;;;;;;;;;;4956241;29;20054;-81
2023/07/30 08:54:43;;;;;;;12.55;6.22;;;;;;;;;;4970602;28;20073;-84
2023/07/30 08:57:16;;;;;;;12.18;6.13;;;;;;;;;;4955738;29;20054;-81
2023/07/30 08:59:57;;;;;;;12.80;6.30;;;;;;;;;;4955774;29;20046;-85
2023/07/30 09:02:37;;;;;;;12.52;5.72;;;;;;;;;;4956139;29;20054;-81
2023/07/30 09:05:09;;;;;;;13.45;6.68;;;;;;;;;;4955700;29;20043;-84
2023/07/30 09:07:40;;;;;;;13.68;6.57;;;;;;;;;;4955712;29;20055;-83
2023/07/30 09:10:11;;;;;;;14.15;7.13;;;;;;;;;;4953297;29;20527;-83
2023/07/30 09:12:44;;;;;;;14.27;7.05;;;;;;;;;;4955609;29;20047;-82
2023/07/30 09:15:17;;;;;;;13.40;6.72;;;;;;;;;;4955763;29;20505;-81
2023/07/30 09:17:47;;;;;;;18.55;7.03;;;;;;;;;;4955552;29;20044;-82
2023/07/30 09:20:19;;;;;;;16.38;7.20;;;;;;;;;;4954334;29;20050;-82
2023/07/30 09:22:51;;;;;;;13.35;6.70;;;;;;;;;;4970127;28;20047;-82
2023/07/30 09:25:24;;;;;;;14.73;7.22;;;;;;;;;;4955603;29;20352;-84
2023/07/30 09:27:54;;;;;;;15.90;7.05;;;;;;;;;;4953992;29;20047;-82
2023/07/30 09:30:28;;;;;;;12.93;6.43;;;;;;;;;;4955628;29;20116;-84
2023/07/30 09:32:58;;;;;;;13.88;7.43;;;;;;;;;;4938583;29;20058;-82
2023/07/30 09:35:34;;;;;;;14.05;6.75;;;;;;;;;;4969070;28;20055;-86
2023/07/30 09:38:05;;;;;;;14.55;6.30;;;;;;;;;;4955466;29;20055;-82
2023/07/30 09:40:39;;;;;;;13.73;6.95;;;;;;;;;;4955228;29;20043;-87
2023/07/30 09:43:12;;;;;;;14.15;6.75;;;;;;;;;;4969701;28;20074;-83
2023/07/30 09:45:47;;;;;;;14.52;7.03;;;;;;;;;;4955269;29;20043;-84
2023/07/30 09:48:18;;;;;;;13.77;5.93;;;;;;;;;;4952870;29;20054;-82
2023/07/30 09:50:49;;;;;;;12.25;6.45;;;;;;;;;;4953799;29;20047;-84
2023/07/30 09:53:22;;;;;;;12.57;6.05;;;;;;;;;;4954969;29;20043;-82
2023/07/30 09:55:52;;;;;;;;;;;;;;;;;;4955127;29;20039;-85
2023/07/30 09:58:22;;;;;;;16.50;6.60;;;;;;;;;;4955170;29;19930;-86
2023/07/30 10:00:54;;;;;;;15.00;6.00;;;;;;;;;;4954420;29;20074;-85
2023/07/30 10:03:27;;;;;;;13.13;6.18;;;;;;;;;;4954297;29;20043;-82
2023/07/30 10:06:07;;;;;;;15.05;7.18;;;;;;;;;;4954848;29;20370;-81
2023/07/30 10:08:40;;;;;;;12.75;6.05;;;;;;;;;;4954973;29;20054;-86
2023/07/30 10:11:13;;;;;;;14.88;7.03;;;;;;;;;;4957726;28;20058;-81
2023/07/30 10:13:48;;;;;;;11.98;6.40;;;;;;;;;;4967130;28;20039;-82
2023/07/30 10:16:27;;;;;;;14.70;7.20;;;;;;;;;;4964655;28;20058;-82
2023/07/30 10:18:59;;;;;;;13.90;6.35;;;;;;;;;;4973313;28;20049;-82
2023/07/30 10:21:32;;;;;;;14.80;6.30;;;;;;;;;;4960676;28;20111;-82
2023/07/30 10:24:08;;;;;;;12.45;6.65;;;;;;;;;;4962540;28;20046;-82
2023/07/30 10:26:41;;;;;;;13.60;6.00;;;;;;;;;;4967132;28;20043;-83
2023/07/30 10:29:23;;;;;;;11.98;6.20;;;;;;;;;;4955610;28;20057;-82
2023/07/30 10:31:56;;;;;;;13.80;6.80;;;;;;;;;;4973498;28;20051;-85
2023/07/30 10:34:45;;;;;;;17.33;8.63;;;;;;;;;;4974718;28;20046;-82
2023/07/30 10:37:21;;;;;;;15.43;6.75;;;;;;;;;;4973638;28;20490;-81
2023/07/30 10:39:54;;;;;;;14.55;6.70;;;;;;;;;;4974026;28;20046;-81
2023/07/30 10:42:34;;;;;;;14.25;6.38;;;;;;;;;;4973869;28;20054;-86
2023/07/30 10:45:10;;;;;;;13.32;6.60;;;;;;;;;;4973849;28;20051;-83
2023/07/30 10:47:44;;;;;;;12.02;6.60;;;;;;;;;;4974244;28;20078;-85
2023/07/30 10:50:16;;;;;;;13.60;6.50;;;;;;;;;;4955851;28;20058;-86
2023/07/30 10:52:47;;;;;;;14.98;7.47;;;;;;;;;;4973959;28;20481;-85
2023/07/30 10:55:23;;;;;;;17.77;8.05;;;;;;;;;;4973948;28;20062;-82
2023/07/30 10:57:57;;;;;;;16.67;8.32;;;;;;;;;;4973894;28;20058;-82
2023/07/30 11:00:29;;;;;;;15.10;7.13;;;;;;;;;;4971816;28;20058;-84
2023/07/30 11:02:59;;;;;;;21.38;7.28;;;;;;;;;;4956722;28;20409;-82
2023/07/30 11:05:37;;;;;;;13.43;7.40;;;;;;;;;;4957082;28;20402;-82
2023/07/30 11:08:08;;;;;;;16.13;7.65;;;;;;;;;;4957322;28;20400;-84
2023/07/30 11:10:47;;;;;;;14.95;8.15;;;;;;;;;;4975036;28;20477;-82
2023/07/30 11:13:18;;;;;;;16.45;7.97;;;;;;;;;;4977598;28;20065;-82
2023/07/30 11:15:49;;;;;;;15.90;7.72;;;;;;;;;;4977126;28;20047;-82
2023/07/30 11:18:21;;;;;;;15.90;7.32;;;;;;;;;;4976823;28;20073;-82
2023/07/30 11:20:53;;;;;;;17.92;8.13;;;;;;;;;;4977440;28;20507;-83
2023/07/30 11:23:23;;;;;;;15.50;8.93;;;;;;;;;;4976517;28;20416;-83
2023/07/30 11:25:58;;;;;;;16.42;7.75;;;;;;;;;;4959112;28;20050;-85
2023/07/30 11:28:33;;;;;;;24.67;10.20;;;;;;;;;;4958206;28;20046;-82
2023/07/30 11:31:21;;;;;;;22.15;10.05;;;;;;;;;;4976988;28;20393;-83
2023/07/30 11:33:52;;;;;;;16.95;8.65;;;;;;;;;;4976845;28;20054;-83
2023/07/30 11:36:27;;;;;;;15.15;8.35;;;;;;;;;;4959178;28;20058;-84
2023/07/30 11:39:46;;;;;;;19.17;8.40;;;;;;;;;;4976400;28;20054;-83
2023/07/30 11:42:22;;;;;;;19.10;8.25;;;;;;;;;;4960404;28;20053;-83
2023/07/30 11:44:52;;;;;;;15.00;7.72;;;;;;;;;;4978598;28;20398;-83
2023/07/30 11:47:22;;;;;;;15.02;8.27;;;;;;;;;;4959270;28;20055;-83
2023/07/30 11:49:59;;;;;;;14.48;7.53;;;;;;;;;;4977521;28;20051;-83
2023/07/30 11:52:30;;;;;;;17.83;8.23;;;;;;;;;;4976991;28;20050;-86
2023/07/30 11:55:02;;;;;;;16.85;8.95;;;;;;;;;;4977184;28;20370;-83
2023/07/30 11:57:36;;;;;;;17.60;9.05;;;;;;;;;;4977185;28;20061;-86
2023/07/30 12:00:10;;;;;;;17.92;8.40;;;;;;;;;;4976674;28;20046;-86
2023/07/30 12:02:40;;;;;;;22.98;11.98;;;;;;;;;;4975941;28;20120;-83
2023/07/30 12:05:18;;;;;;;20.98;11.32;;;;;;;;;;4975754;28;20046;-84
2023/07/30 12:07:51;;;;;;;24.10;12.63;;;;;;;;;;4959292;28;20043;-84
2023/07/30 12:10:22;;;;;;;21.38;12.77;;;;;;;;;;4974316;28;20057;-85
2023/07/30 12:12:53;;;;;;;26.00;14.10;;;;;;;;;;4976473;28;20338;-85
2023/07/30 12:15:24;;;;;;;20.73;12.30;;;;;;;;;;4958710;28;20058;-87
2023/07/30 12:17:56;;;;;;;27.23;11.20;;;;;;;;;;4976922;28;20046;-85
2023/07/30 12:20:28;;;;;;;21.55;11.95;;;;;;;;;;4976268;28;20043;-86
2023/07/30 12:23:01;;;;;;;22.77;11.38;;;;;;;;;;4959419;28;20043;-84
2023/07/30 12:25:34;;;;;;;19.60;10.45;;;;;;;;;;4976297;28;20043;-85
2023/07/30 12:28:09;;;;;;;20.52;10.55;;;;;;;;;;4975998;28;20047;-88
2023/07/30 12:30:39;;;;;;;17.58;9.10;;;;;;;;;;4974864;28;20049;-84
2023/07/30 12:33:11;;;;;;;59.13;24.60;;;;;;;;;;4959294;28;20065;-84
2023/07/30 12:35:42;;;;;;;52.83;21.13;;;;;;;;;;4974346;28;20057;-85
2023/07/30 12:38:15;;;;;;;27.45;14.35;;;;;;;;;;4957397;28;20055;-86
2023/07/30 12:40:48;;;;;;;44.05;22.25;;;;;;;;;;4957417;28;20051;-84
2023/07/30 12:43:21;;;;;;;28.77;16.42;;;;;;;;;;4976132;28;20054;-85
2023/07/30 12:45:56;;;;;;;21.45;10.98;;;;;;;;;;4975456;28;20050;-87
2023/07/30 12:48:27;;;;;;;15.20;8.38;;;;;;;;;;4958860;28;20054;-87
2023/07/30 12:50:57;;;;;;;20.65;12.02;;;;;;;;;;4975387;28;20413;-84
2023/07/30 12:53:30;;;;;;;69.35;32.50;;;;;;;;;;4975575;28;20049;-85
2023/07/30 12:56:01;;;;;;;28.05;15.57;;;;;;;;;;4974294;28;20053;-85
2023/07/30 12:58:34;;;;;;;33.25;17.63;;;;;;;;;;4957031;28;20050;-84
2023/07/30 13:01:04;;;;;;;26.20;15.82;;;;;;;;;;4957142;28;20053;-84
2023/07/30 13:03:38;;;;;;;53.88;26.42;;;;;;;;;;4974748;28;20051;-84
2023/07/30 13:06:09;;;;;;;56.22;25.63;;;;;;;;;;4975316;28;20054;-84
2023/07/30 13:08:40;;;;;;;37.13;19.55;;;;;;;;;;4973774;28;20047;-84
2023/07/30 13:11:10;;;;;;;31.10;16.80;;;;;;;;;;4975323;28;20053;-84
2023/07/30 13:13:43;;;;;;;43.78;24.00;;;;;;;;;;4955685;28;20505;-84
2023/07/30 13:16:14;;;;;;;23.13;14.02;;;;;;;;;;4941389;28;20402;-85
2023/07/30 13:18:45;;;;;;;21.67;11.07;;;;;;;;;;4974616;28;20055;-84
2023/07/30 13:21:15;;;;;;;47.28;24.15;;;;;;;;;;4955218;28;20055;-82
2023/07/30 13:23:46;;;;;;;13.32;6.25;;;;;;;;;;4971215;28;20051;-82
2023/07/30 13:26:20;;;;;;;19.00;11.70;;;;;;;;;;4974502;28;20385;-82
2023/07/30 13:28:53;;;;;;;15.32;8.77;;;;;;;;;;4956757;28;20493;-82
2023/07/30 13:31:23;;;;;;;6.57;3.17;;;;;;;;;;4974595;28;20055;-82
2023/07/30 13:33:55;;;;;;;26.08;14.82;;;;;;;;;;4957076;28;20374;-82
2023/07/30 13:36:26;;;;;;;12.60;7.22;;;;;;;;;;4974496;28;20062;-82
2023/07/30 13:38:56;;;;;;;10.30;4.47;;;;;;;;;;4974201;28;20051;-81
2023/07/30 13:41:26;;;;;;;10.90;4.53;;;;;;;;;;4974021;28;20039;-81
2023/07/30 13:43:59;;;;;;;9.48;4.43;;;;;;;;;;4974216;28;20062;-82
2023/07/30 13:46:30;;;;;;;9.43;5.20;;;;;;;;;;4956251;28;20055;-81
2023/07/30 13:49:02;;;;;;;5.13;2.28;;;;;;;;;;4974481;28;20053;-83
2023/07/30 13:51:32;;;;;;;9.20;4.10;;;;;;;;;;4974863;28;20050;-82
2023/07/30 13:54:07;;;;;;;7.30;3.85;;;;;;;;;;4974216;28;20051;-82
2023/07/30 13:56:38;;;;;;;9.82;4.35;;;;;;;;;;4974268;28;20359;-82
2023/07/30 13:59:11;;;;;;;6.57;3.22;;;;;;;;;;4956319;28;20485;-82
2023/07/30 14:01:43;;;;;;;8.82;3.97;;;;;;;;;;4974399;28;20055;-83
2023/07/30 14:04:13;;;;;;;6.38;3.58;;;;;;;;;;4956986;28;20047;-82
2023/07/30 14:06:45;;;;;;;5.88;2.67;;;;;;;;;;4973843;28;20493;-82
2023/07/30 14:09:17;;;;;;;7.13;3.70;;;;;;;;;;4974397;28;20051;-82
2023/07/30 14:11:49;;;;;;;5.00;2.75;;;;;;;;;;4974715;28;20043;-83
2023/07/30 14:14:22;;;;;;;5.82;2.95;;;;;;;;;;4974103;28;20513;-81
2023/07/30 14:16:56;;;;;;;7.72;3.97;;;;;;;;;;4973958;28;20111;-82
2023/07/30 14:19:26;;;;;;;6.10;3.28;;;;;;;;;;4974061;28;20055;-83
2023/07/30 14:21:57;;;;;;;12.57;4.03;;;;;;;;;;4973868;28;20470;-82
2023/07/30 14:24:28;;;;;;;4.53;2.15;;;;;;;;;;4974410;28;20042;-82
2023/07/30 14:27:01;;;;;;;6.05;3.50;;;;;;;;;;4974373;28;20062;-82
2023/07/30 14:29:35;;;;;;;7.03;3.72;;;;;;;;;;4973763;28;20043;-82
2023/07/30 14:32:07;;;;;;;7.00;4.32;;;;;;;;;;4973826;28;20046;-82
2023/07/30 14:34:39;;;;;;;7.97;3.50;;;;;;;;;;4973761;28;20058;-83
2023/07/30 14:37:14;;;;;;;6.75;3.55;;;;;;;;;;4956812;28;20059;-82
2023/07/30 14:39:45;;;;;;;6.93;3.60;;;;;;;;;;4973684;28;20051;-83
2023/07/30 14:42:18;;;;;;;6.63;3.28;;;;;;;;;;4973761;28;20046;-83
2023/07/30 14:44:50;;;;;;;6.32;3.20;;;;;;;;;;4972677;28;20066;-82
2023/07/30 14:47:22;;;;;;;5.35;2.92;;;;;;;;;;4977937;28;20043;-83
2023/07/30 14:49:55;;;;;;;6.55;2.97;;;;;;;;;;4977560;28;20501;-83
2023/07/30 14:52:28;;;;;;;7.20;3.20;;;;;;;;;;4976220;28;20047;-83
2023/07/30 14:54:59;;;;;;;5.55;3.10;;;;;;;;;;4976173;28;20046;-82
2023/07/30 14:57:32;;;;;;;5.35;3.05;;;;;;;;;;4977451;28;20050;-83
2023/07/30 15:00:09;;;;;;;5.18;2.97;;;;;;;;;;4976758;28;20047;-83